Time;durP1;ratioP1;P1;durP2;ratioP2;P2;SDS_P1;SDS_P2;PMS_P1;PMS_P2;Temp;Humidity;BMP_temperature;BMP_pressure;BME280_temperature;BME280_humidity;BME280_pressure;Samples;Min_cycle;Max_cycle;Signal;HPM_P1;HPM_P2
2022/02/24 00:00:12;;;;;;;0.10;0.10;;;7.70;99.90;;;;;;5027405;28;20212;-84
2022/02/24 00:02:37;;;;;;;1.17;0.83;;;7.70;99.90;;;;;;5028895;28;20213;-83
2022/02/24 00:05:03;;;;;;;1.10;0.20;;;7.70;99.90;;;;;;5024891;28;20689;-84
2022/02/24 00:07:28;;;;;;;0.30;0.30;;;7.80;99.90;;;;;;5022293;28;20248;-83
2022/02/24 00:09:54;;;;;;;0.17;0.17;;;7.80;99.90;;;;;;5026998;28;20345;-83
2022/02/24 00:12:19;;;;;;;0.20;0.10;;;7.80;99.90;;;;;;5023593;28;20226;-84
2022/02/24 00:14:46;;;;;;;0.23;0.23;;;7.60;99.90;;;;;;5022522;28;20191;-83
2022/02/24 00:17:11;;;;;;;0.20;0.20;;;7.60;99.90;;;;;;5023054;28;20205;-83
2022/02/24 00:19:38;;;;;;;0.17;0.17;;;7.40;99.90;;;;;;5024020;28;20180;-83
2022/02/24 00:22:04;;;;;;;0.23;0.23;;;7.30;99.90;;;;;;5025911;28;21045;-84
2022/02/24 00:24:30;;;;;;;0.20;0.20;;;7.10;99.90;;;;;;5024410;28;20191;-84
2022/02/24 00:26:56;;;;;;;0.50;0.50;;;7.20;99.90;;;;;;5026021;28;20241;-84
2022/02/24 00:29:22;;;;;;;0.30;0.30;;;7.30;99.90;;;;;;5022961;28;20270;-83
2022/02/24 00:31:47;;;;;;;0.27;0.27;;;7.40;99.90;;;;;;5019378;28;20588;-84
2022/02/24 00:34:15;;;;;;;0.27;0.27;;;7.50;99.90;;;;;;5027968;28;20188;-84
2022/02/24 00:36:41;;;;;;;0.40;0.40;;;7.40;99.90;;;;;;5027485;28;20181;-84
2022/02/24 00:39:06;;;;;;;0.43;0.43;;;7.40;99.90;;;;;;5027151;28;20252;-84
2022/02/24 00:41:32;;;;;;;1.13;0.47;;;7.50;99.90;;;;;;5024550;28;20671;-84
2022/02/24 00:43:58;;;;;;;0.20;0.20;;;7.50;99.90;;;;;;5026829;28;20183;-83
2022/02/24 00:46:24;;;;;;;0.30;0.30;;;7.60;99.90;;;;;;5021877;28;20184;-84
2022/02/24 00:48:50;;;;;;;0.33;0.33;;;7.60;99.90;;;;;;5026355;28;20299;-83
2022/02/24 00:51:15;;;;;;;0.40;0.33;;;7.60;99.90;;;;;;5023849;28;20299;-84
2022/02/24 00:53:41;;;;;;;0.37;0.37;;;7.70;99.90;;;;;;5021569;28;20596;-84
2022/02/24 00:56:10;;;;;;;0.30;0.30;;;7.40;99.90;;;;;;5025747;28;20188;-83
2022/02/24 00:58:36;;;;;;;0.30;0.30;;;7.30;99.90;;;;;;5025917;28;20201;-83
2022/02/24 01:01:03;;;;;;;0.30;0.30;;;7.10;99.90;;;;;;5023976;28;20204;-84
2022/02/24 01:03:29;;;;;;;0.30;0.30;;;6.80;99.90;;;;;;5025065;28;20322;-84
2022/02/24 01:05:54;;;;;;;0.47;0.47;;;6.80;99.90;;;;;;5025773;28;20286;-84
2022/02/24 01:08:20;;;;;;;0.33;0.23;;;7.00;99.90;;;;;;5020255;28;20203;-83
2022/02/24 01:10:45;;;;;;;0.37;0.37;;;7.00;99.90;;;;;;5023104;28;20198;-83
2022/02/24 01:13:11;;;;;;;1.13;0.30;;;7.10;99.90;;;;;;5024248;28;20192;-84
2022/02/24 01:15:38;;;;;;;0.20;0.20;;;7.20;99.90;;;;;;5026444;28;20690;-84
2022/02/24 01:18:10;;;;;;;0.40;0.30;;;7.20;99.90;;;;;;5023035;28;20209;-84
2022/02/24 01:20:36;;;;;;;0.43;0.43;;;7.20;99.90;;;;;;5024551;28;20192;-83
2022/02/24 01:23:02;;;;;;;1.90;0.43;;;7.30;99.90;;;;;;5021845;28;20188;-84
2022/02/24 01:25:28;;;;;;;0.57;0.57;;;7.20;99.90;;;;;;5026227;28;20546;-84
2022/02/24 01:27:53;;;;;;;0.67;0.67;;;7.30;99.90;;;;;;5022902;28;20243;-84
2022/02/24 01:30:20;;;;;;;0.20;0.20;;;7.30;99.90;;;;;;5025463;28;20206;-83
2022/02/24 01:32:46;;;;;;;0.70;0.33;;;7.10;99.90;;;;;;5024420;28;20218;-84
2022/02/24 01:35:11;;;;;;;0.20;0.20;;;7.00;99.90;;;;;;5025058;28;20326;-84
2022/02/24 01:37:37;;;;;;;0.27;0.27;;;7.10;99.90;;;;;;5023497;28;20229;-84
2022/02/24 01:40:04;;;;;;;0.30;0.30;;;7.20;99.90;;;;;;5023817;28;20556;-84
2022/02/24 01:42:30;;;;;;;0.20;0.20;;;7.30;99.90;;;;;;5024219;28;20250;-84
2022/02/24 01:44:55;;;;;;;0.60;0.47;;;7.30;99.90;;;;;;5027214;28;20606;-84
2022/02/24 01:47:21;;;;;;;0.67;0.40;;;7.40;99.90;;;;;;5023937;28;20207;-84
2022/02/24 01:49:46;;;;;;;0.20;0.20;;;7.40;99.90;;;;;;5018791;28;20182;-84
2022/02/24 01:52:13;;;;;;;0.10;0.10;;;7.40;99.90;;;;;;5021540;28;20210;-83
2022/02/24 01:54:40;;;;;;;0.77;0.53;;;7.50;99.90;;;;;;5023899;28;20556;-84
2022/02/24 01:57:08;;;;;;;0.30;0.30;;;7.60;99.90;;;;;;5022623;28;20231;-84
2022/02/24 01:59:34;;;;;;;0.20;0.20;;;7.70;99.90;;;;;;5040413;28;20184;-83
2022/02/24 02:01:59;;;;;;;0.30;0.30;;;7.80;99.90;;;;;;5026580;28;20195;-84
2022/02/24 02:04:25;;;;;;;0.20;0.20;;;7.70;99.90;;;;;;5023784;28;20191;-83
2022/02/24 02:06:50;;;;;;;0.10;0.10;;;7.70;99.90;;;;;;5020198;28;20703;-84
2022/02/24 02:09:17;;;;;;;0.50;0.50;;;7.70;99.90;;;;;;5020211;28;20247;-82
2022/02/24 02:11:42;;;;;;;0.30;0.30;;;7.80;99.90;;;;;;5022203;28;20542;-84
2022/02/24 02:14:12;;;;;;;0.53;0.53;;;7.80;99.90;;;;;;5021695;28;20191;-84
2022/02/24 02:16:48;;;;;;;0.20;0.20;;;7.70;99.90;;;;;;5019899;28;20201;-84
2022/02/24 02:19:14;;;;;;;0.43;0.43;;;7.70;99.90;;;;;;5025751;28;20195;-84
2022/02/24 02:21:40;;;;;;;0.50;0.50;;;7.70;99.90;;;;;;5023487;28;20195;-83
2022/02/24 02:24:06;;;;;;;0.33;0.33;;;7.60;99.90;;;;;;5021747;28;20216;-84
2022/02/24 02:26:32;;;;;;;0.30;0.30;;;7.60;99.90;;;;;;5021843;28;20295;-83
2022/02/24 02:29:03;;;;;;;0.73;0.40;;;7.60;99.90;;;;;;5023657;28;20338;-84
2022/02/24 02:31:29;;;;;;;0.30;0.30;;;7.50;99.90;;;;;;5025607;28;20217;-84
2022/02/24 02:34:16;;;;;;;1.70;0.93;;;7.50;99.90;;;;;;5028950;28;20193;-84
2022/02/24 02:36:45;;;;;;;0.50;0.50;;;7.50;99.90;;;;;;5028354;28;20177;-83
2022/02/24 02:39:12;;;;;;;1.37;0.50;;;7.30;99.90;;;;;;5029207;28;20199;-84
2022/02/24 02:41:42;;;;;;;1.43;0.93;;;7.40;99.90;;;;;;5026706;28;20195;-84
2022/02/24 02:44:09;;;;;;;1.97;0.37;;;7.40;99.90;;;;;;5026509;28;20183;-84
2022/02/24 02:46:34;;;;;;;0.83;0.70;;;7.20;99.90;;;;;;5027292;28;20207;-84
2022/02/24 02:49:01;;;;;;;0.50;0.27;;;7.20;99.90;;;;;;5025463;28;20230;-83
2022/02/24 02:51:28;;;;;;;0.80;0.80;;;7.20;99.90;;;;;;5026684;28;20223;-84
2022/02/24 02:53:54;;;;;;;3.23;0.57;;;7.30;99.90;;;;;;5029308;28;20191;-84
2022/02/24 02:56:19;;;;;;;0.40;0.33;;;7.40;99.90;;;;;;5029371;28;20188;-83
2022/02/24 02:58:45;;;;;;;0.20;0.20;;;7.50;99.90;;;;;;5027717;28;20240;-83
2022/02/24 03:01:10;;;;;;;1.20;0.70;;;7.50;99.90;;;;;;5028407;28;20275;-84
2022/02/24 03:03:36;;;;;;;0.77;0.77;;;7.60;99.90;;;;;;5032359;28;20187;-84
2022/02/24 03:06:02;;;;;;;0.37;0.37;;;7.60;99.90;;;;;;5032037;28;20206;-83
2022/02/24 03:08:27;;;;;;;0.30;0.30;;;7.40;99.90;;;;;;5032909;28;21180;-83
2022/02/24 03:10:53;;;;;;;0.97;0.63;;;7.20;99.90;;;;;;5031875;28;20183;-83
2022/02/24 03:13:19;;;;;;;0.20;0.20;;;7.20;99.90;;;;;;5030932;28;20185;-83
2022/02/24 03:15:46;;;;;;;0.57;0.57;;;7.40;99.90;;;;;;5029710;28;20180;-84
2022/02/24 03:18:12;;;;;;;0.60;0.60;;;7.30;99.90;;;;;;5030626;28;20207;-84
2022/02/24 03:20:38;;;;;;;0.33;0.33;;;7.30;99.90;;;;;;5032750;28;20272;-84
2022/02/24 03:23:06;;;;;;;1.43;0.80;;;7.40;99.90;;;;;;5032530;28;20188;-84
2022/02/24 03:25:32;;;;;;;0.77;0.33;;;7.50;99.90;;;;;;5032299;28;20274;-83
2022/02/24 03:27:58;;;;;;;0.50;0.30;;;7.60;99.90;;;;;;5031028;28;20756;-83
2022/02/24 03:30:25;;;;;;;1.97;0.30;;;7.70;99.90;;;;;;5029132;28;20711;-84
2022/02/24 03:32:51;;;;;;;0.83;0.63;;;7.70;99.90;;;;;;5028463;28;20212;-83
2022/02/24 03:35:18;;;;;;;0.30;0.30;;;7.70;99.90;;;;;;5026108;28;20245;-83
2022/02/24 03:37:44;;;;;;;0.10;0.10;;;7.70;99.90;;;;;;5030491;28;20285;-84
2022/02/24 03:40:12;;;;;;;0.73;0.30;;;7.70;99.90;;;;;;5031254;28;20239;-83
2022/02/24 03:42:38;;;;;;;0.53;0.30;;;7.70;99.90;;;;;;5027897;28;20180;-84
2022/02/24 03:45:05;;;;;;;2.93;0.57;;;7.70;99.90;;;;;;5029460;28;20224;-84
2022/02/24 03:47:31;;;;;;;0.20;0.20;;;7.60;99.90;;;;;;5027603;28;20488;-83
2022/02/24 03:49:57;;;;;;;0.47;0.40;;;7.70;99.90;;;;;;5027829;28;20242;-84
2022/02/24 03:52:22;;;;;;;0.20;0.20;;;7.60;99.90;;;;;;5029638;28;20267;-84
2022/02/24 03:54:50;;;;;;;0.10;0.10;;;7.50;99.90;;;;;;5022982;28;20190;-84
2022/02/24 03:57:17;;;;;;;0.20;0.20;;;7.50;99.90;;;;;;5026644;28;20678;-83
2022/02/24 03:59:43;;;;;;;0.30;0.30;;;7.50;99.90;;;;;;5029869;28;20211;-84
2022/02/24 04:02:09;;;;;;;0.57;0.20;;;7.50;99.90;;;;;;5029068;28;20185;-84
2022/02/24 04:04:35;;;;;;;0.20;0.20;;;7.50;99.90;;;;;;5027254;28;20293;-83
2022/02/24 04:07:01;;;;;;;0.20;0.20;;;7.60;99.90;;;;;;5028368;28;20222;-84
2022/02/24 04:09:27;;;;;;;0.20;0.20;;;7.70;99.90;;;;;;5028108;28;20187;-83
2022/02/24 04:11:53;;;;;;;0.20;0.20;;;7.50;99.90;;;;;;5027047;28;20211;-84
2022/02/24 04:14:19;;;;;;;0.47;0.40;;;7.20;99.90;;;;;;5023551;28;20179;-84
2022/02/24 04:16:44;;;;;;;0.20;0.20;;;7.10;99.90;;;;;;5029005;28;20205;-83
2022/02/24 04:19:10;;;;;;;0.07;0.07;;;7.20;99.90;;;;;;5026275;28;20726;-82
2022/02/24 04:21:35;;;;;;;0.13;0.13;;;7.30;99.90;;;;;;5029754;28;20191;-84
2022/02/24 04:24:03;;;;;;;0.20;0.20;;;7.40;99.90;;;;;;5028585;28;20315;-83
2022/02/24 04:26:28;;;;;;;0.17;0.17;;;7.40;99.90;;;;;;5025792;28;20607;-83
2022/02/24 04:28:54;;;;;;;0.20;0.20;;;7.50;99.90;;;;;;5026401;28;20199;-83
2022/02/24 04:31:20;;;;;;;0.40;0.40;;;7.50;99.90;;;;;;5030147;28;20279;-83
2022/02/24 04:33:45;;;;;;;1.30;0.53;;;7.40;99.90;;;;;;5029734;28;20185;-82
2022/02/24 04:36:11;;;;;;;0.93;0.60;;;7.50;99.90;;;;;;5024303;28;20263;-83
2022/02/24 04:38:36;;;;;;;0.57;0.57;;;7.40;99.90;;;;;;5028310;28;20561;-83
2022/02/24 04:41:03;;;;;;;0.30;0.30;;;7.50;99.90;;;;;;5024894;28;20223;-83
2022/02/24 04:43:29;;;;;;;3.60;0.37;;;7.50;99.90;;;;;;5024517;28;20193;-83
2022/02/24 04:45:54;;;;;;;1.30;0.47;;;7.30;99.90;;;;;;5030990;28;20184;-83
2022/02/24 04:48:21;;;;;;;0.43;0.43;;;7.00;99.90;;;;;;5027582;28;20247;-83
2022/02/24 04:50:47;;;;;;;0.47;0.43;;;6.80;99.90;;;;;;5025026;28;20191;-83
2022/02/24 04:53:12;;;;;;;3.40;0.87;;;6.90;99.90;;;;;;5024326;28;20216;-83
2022/02/24 04:55:39;;;;;;;2.87;0.60;;;6.90;99.90;;;;;;5025099;28;20695;-83
2022/02/24 04:58:05;;;;;;;0.20;0.20;;;6.70;99.90;;;;;;5024559;28;20565;-83
2022/02/24 05:00:31;;;;;;;0.20;0.20;;;6.70;99.90;;;;;;5025805;28;20247;-83
2022/02/24 05:02:56;;;;;;;0.30;0.30;;;6.80;99.90;;;;;;5030044;28;20188;-83
2022/02/24 05:05:22;;;;;;;0.50;0.50;;;6.90;99.90;;;;;;5027179;28;20678;-84
2022/02/24 05:07:48;;;;;;;1.03;0.40;;;7.00;99.90;;;;;;5022351;28;20235;-83
2022/02/24 05:10:13;;;;;;;0.30;0.30;;;7.20;99.90;;;;;;5022915;28;20688;-83
2022/02/24 05:12:39;;;;;;;3.00;1.53;;;7.10;99.90;;;;;;5021538;28;20210;-83
2022/02/24 05:15:05;;;;;;;0.40;0.40;;;7.00;99.90;;;;;;5020371;28;20190;-83
2022/02/24 05:17:31;;;;;;;0.20;0.20;;;6.90;99.90;;;;;;5027537;28;21053;-83
2022/02/24 05:19:59;;;;;;;0.47;0.47;;;6.90;99.90;;;;;;5019396;28;20184;-82
2022/02/24 05:22:24;;;;;;;0.20;0.17;;;7.10;99.90;;;;;;5020788;28;20204;-83
2022/02/24 05:24:51;;;;;;;0.20;0.20;;;7.20;99.90;;;;;;5018595;28;20549;-83
2022/02/24 05:27:17;;;;;;;0.40;0.40;;;7.10;99.90;;;;;;5023381;28;20289;-83
2022/02/24 05:29:43;;;;;;;0.30;0.30;;;7.20;99.90;;;;;;5017377;28;20190;-83
2022/02/24 05:32:09;;;;;;;0.20;0.20;;;7.20;99.90;;;;;;5020264;28;20209;-83
2022/02/24 05:34:34;;;;;;;0.30;0.30;;;7.30;99.90;;;;;;5015959;28;20180;-83
2022/02/24 05:37:00;;;;;;;0.20;0.20;;;7.30;99.90;;;;;;5020232;28;20206;-83
2022/02/24 05:39:25;;;;;;;0.97;0.77;;;7.40;99.90;;;;;;5022297;28;20188;-83
2022/02/24 05:41:51;;;;;;;0.20;0.20;;;7.20;99.90;;;;;;5026842;28;20188;-82
2022/02/24 05:44:16;;;;;;;0.50;0.30;;;7.00;99.90;;;;;;5017191;28;20227;-83
2022/02/24 05:46:42;;;;;;;0.20;0.20;;;7.10;99.90;;;;;;5023899;28;20191;-83
2022/02/24 05:49:07;;;;;;;0.57;0.40;;;7.20;99.90;;;;;;5023281;28;20725;-82
2022/02/24 05:51:33;;;;;;;0.33;0.33;;;7.30;99.90;;;;;;5023897;28;20304;-83
2022/02/24 05:53:58;;;;;;;0.47;0.47;;;7.40;99.90;;;;;;5019710;28;20417;-82
2022/02/24 05:56:24;;;;;;;0.20;0.20;;;7.50;99.90;;;;;;5028893;28;20196;-82
2022/02/24 05:58:49;;;;;;;0.50;0.50;;;7.10;99.90;;;;;;5030129;28;20774;-83
2022/02/24 06:01:15;;;;;;;0.33;0.30;;;7.10;99.90;;;;;;5023245;28;20271;-82
2022/02/24 06:03:40;;;;;;;0.40;0.40;;;7.20;99.90;;;;;;5022451;28;20643;-83
2022/02/24 06:06:06;;;;;;;0.20;0.20;;;7.30;99.90;;;;;;5023697;28;20218;-82
2022/02/24 06:08:31;;;;;;;0.23;0.23;;;7.00;99.90;;;;;;5024366;28;20235;-82
2022/02/24 06:10:57;;;;;;;0.30;0.30;;;7.10;99.90;;;;;;5021356;28;20661;-83
2022/02/24 06:13:23;;;;;;;0.20;0.20;;;6.80;99.90;;;;;;5023868;28;20183;-82
2022/02/24 06:15:48;;;;;;;0.37;0.37;;;6.80;99.90;;;;;;5024820;28;20572;-83
2022/02/24 06:18:18;;;;;;;0.60;0.60;;;6.80;99.90;;;;;;5032110;28;20217;-83
2022/02/24 06:20:44;;;;;;;0.60;0.60;;;6.80;99.90;;;;;;5029220;28;20267;-83
2022/02/24 06:23:09;;;;;;;0.93;0.93;;;6.80;99.90;;;;;;5026968;28;20822;-82
2022/02/24 06:25:35;;;;;;;0.53;0.47;;;6.70;99.90;;;;;;5025010;28;20229;-83
2022/02/24 06:28:01;;;;;;;0.30;0.30;;;6.60;99.90;;;;;;5025941;28;20205;-82
2022/02/24 06:30:26;;;;;;;0.67;0.67;;;6.60;99.90;;;;;;5020803;28;20194;-82
2022/02/24 06:32:52;;;;;;;0.33;0.33;;;6.70;99.90;;;;;;5022530;28;20213;-82
2022/02/24 06:35:17;;;;;;;1.43;1.33;;;6.70;99.90;;;;;;5023554;28;20192;-83
2022/02/24 06:37:43;;;;;;;0.53;0.30;;;6.70;99.90;;;;;;5027037;28;20208;-82
2022/02/24 06:40:10;;;;;;;0.40;0.40;;;6.60;99.90;;;;;;5023263;28;20191;-83
2022/02/24 06:42:36;;;;;;;0.80;0.80;;;6.60;99.90;;;;;;5023577;28;20298;-82
2022/02/24 06:45:03;;;;;;;0.30;0.30;;;6.60;99.90;;;;;;5019325;28;20614;-81
2022/02/24 06:47:29;;;;;;;4.37;0.50;;;6.70;99.90;;;;;;5020469;28;20224;-81
2022/02/24 06:49:54;;;;;;;0.20;0.20;;;6.60;99.90;;;;;;5025316;28;20567;-81
2022/02/24 06:52:20;;;;;;;1.57;0.47;;;6.60;99.90;;;;;;5019071;28;20208;-80
2022/02/24 06:54:45;;;;;;;1.03;1.03;;;6.60;99.90;;;;;;5025810;28;20189;-81
2022/02/24 06:57:11;;;;;;;0.30;0.30;;;6.50;99.90;;;;;;5022107;28;20686;-81
2022/02/24 06:59:39;;;;;;;0.20;0.20;;;6.60;99.90;;;;;;5023076;28;20217;-82
2022/02/24 07:02:06;;;;;;;1.80;0.97;;;6.60;99.90;;;;;;5031074;28;20227;-81
2022/02/24 07:04:32;;;;;;;0.47;0.17;;;6.70;99.90;;;;;;5029518;28;20210;-81
2022/02/24 07:06:59;;;;;;;0.20;0.20;;;6.70;99.90;;;;;;5032697;28;20357;-81
2022/02/24 07:09:25;;;;;;;0.40;0.40;;;6.70;99.90;;;;;;5029730;28;20211;-81
2022/02/24 07:11:51;;;;;;;0.50;0.50;;;7.00;99.90;;;;;;5039054;28;20218;-83
2022/02/24 07:14:18;;;;;;;0.10;0.10;;;6.80;99.90;;;;;;5029212;28;20183;-83
2022/02/24 07:16:44;;;;;;;0.40;0.40;;;6.90;99.90;;;;;;5026889;28;20727;-83
2022/02/24 07:19:10;;;;;;;0.27;0.27;;;7.10;99.90;;;;;;5026388;28;20315;-84
2022/02/24 07:21:36;;;;;;;0.10;0.10;;;7.00;99.90;;;;;;5030380;28;20226;-85
2022/02/24 07:24:02;;;;;;;0.13;0.13;;;6.90;99.90;;;;;;5028912;28;20191;-83
2022/02/24 07:26:28;;;;;;;0.47;0.47;;;6.80;99.90;;;;;;5032498;28;20191;-83
2022/02/24 07:28:53;;;;;;;0.47;0.47;;;6.80;99.90;;;;;;5027075;28;20633;-83
2022/02/24 07:31:19;;;;;;;0.40;0.40;;;6.90;99.90;;;;;;5031414;28;20231;-84
2022/02/24 07:33:44;;;;;;;0.20;0.20;;;6.80;99.90;;;;;;5028568;28;20207;-84
2022/02/24 07:36:10;;;;;;;0.20;0.20;;;6.80;99.90;;;;;;5032588;28;20190;-83
2022/02/24 07:38:35;;;;;;;0.50;0.50;;;7.00;99.90;;;;;;5029976;28;20243;-84
2022/02/24 07:41:01;;;;;;;0.20;0.20;;;7.20;99.90;;;;;;5033874;28;20192;-83
2022/02/24 07:43:26;;;;;;;0.87;0.87;;;7.40;99.90;;;;;;5031913;28;20187;-84
2022/02/24 07:45:52;;;;;;;1.13;0.30;;;7.30;99.90;;;;;;5026892;28;20249;-82
2022/02/24 07:48:17;;;;;;;0.13;0.13;;;7.50;99.90;;;;;;5031451;28;20215;-84
2022/02/24 07:50:43;;;;;;;3.93;1.13;;;7.70;99.90;;;;;;5029462;28;20197;-84
2022/02/24 07:53:08;;;;;;;0.13;0.13;;;7.80;99.90;;;;;;5031866;28;20306;-83
2022/02/24 07:55:34;;;;;;;0.10;0.10;;;7.90;99.90;;;;;;5026409;28;20261;-84
2022/02/24 07:58:00;;;;;;;0.30;0.30;;;7.90;99.90;;;;;;5027959;28;20642;-82
2022/02/24 08:00:25;;;;;;;2.53;0.77;;;8.00;99.90;;;;;;5032225;28;20192;-81
2022/02/24 08:02:55;;;;;;;4.73;0.57;;;7.90;99.90;;;;;;5026152;28;20288;-82
2022/02/24 08:05:20;;;;;;;0.10;0.10;;;7.80;99.90;;;;;;5022111;28;20209;-83
2022/02/24 08:07:46;;;;;;;0.13;0.13;;;8.00;99.90;;;;;;5022626;28;20211;-82
2022/02/24 08:10:13;;;;;;;0.40;0.40;;;8.10;99.90;;;;;;5026448;28;20220;-82
2022/02/24 08:12:38;;;;;;;0.77;0.30;;;7.80;99.90;;;;;;5029939;28;20225;-82
2022/02/24 08:15:06;;;;;;;2.23;0.90;;;7.90;99.90;;;;;;5029979;28;20546;-82
2022/02/24 08:17:32;;;;;;;0.63;0.57;;;7.50;99.90;;;;;;5029237;28;20211;-83
2022/02/24 08:19:58;;;;;;;0.73;0.13;;;7.30;99.90;;;;;;5026672;28;20193;-82
2022/02/24 08:22:23;;;;;;;1.43;0.80;;;7.40;99.90;;;;;;5029426;28;20679;-82
2022/02/24 08:24:49;;;;;;;0.60;0.33;;;7.20;99.90;;;;;;5027864;28;21045;-82
2022/02/24 08:27:15;;;;;;;0.40;0.40;;;7.10;99.90;;;;;;5026659;28;20212;-82
2022/02/24 08:29:41;;;;;;;0.77;0.40;;;7.20;99.90;;;;;;5030271;28;20547;-82
2022/02/24 08:32:07;;;;;;;0.30;0.30;;;7.40;99.90;;;;;;5027928;28;20700;-82
2022/02/24 08:34:32;;;;;;;0.40;0.20;;;7.70;99.90;;;;;;5029016;28;20200;-82
2022/02/24 08:36:58;;;;;;;0.20;0.20;;;7.80;99.90;;;;;;5042646;28;20542;-82
2022/02/24 08:39:23;;;;;;;0.30;0.30;;;7.80;99.90;;;;;;5025996;28;20609;-82
2022/02/24 08:41:50;;;;;;;1.53;0.33;;;7.80;99.90;;;;;;5023447;28;20267;-82
2022/02/24 08:44:15;;;;;;;0.60;0.60;;;7.80;99.90;;;;;;5029082;28;20257;-82
2022/02/24 08:46:41;;;;;;;1.03;0.97;;;7.80;99.90;;;;;;5025928;28;20269;-82
2022/02/24 08:49:07;;;;;;;0.50;0.50;;;7.70;99.90;;;;;;5021270;28;20187;-82
2022/02/24 08:51:33;;;;;;;1.87;0.83;;;7.50;99.90;;;;;;5028097;28;20218;-82
2022/02/24 08:53:58;;;;;;;0.50;0.50;;;7.40;99.90;;;;;;5022901;28;20189;-82
2022/02/24 08:56:24;;;;;;;1.30;0.70;;;7.40;99.90;;;;;;5022923;28;20212;-82
2022/02/24 08:58:49;;;;;;;0.30;0.30;;;7.80;99.90;;;;;;5026503;28;20201;-82
2022/02/24 09:01:15;;;;;;;2.00;0.60;;;7.90;99.90;;;;;;5024998;28;20247;-82
2022/02/24 09:03:40;;;;;;;0.53;0.53;;;8.10;99.90;;;;;;5027311;28;20180;-81
2022/02/24 09:06:06;;;;;;;0.93;0.60;;;8.30;99.90;;;;;;5022332;28;20219;-82
2022/02/24 09:08:32;;;;;;;0.27;0.27;;;8.30;99.90;;;;;;5024035;28;20299;-82
2022/02/24 09:10:57;;;;;;;2.47;0.50;;;8.30;99.90;;;;;;5025463;28;20328;-82
2022/02/24 09:13:23;;;;;;;0.70;0.70;;;8.50;99.90;;;;;;5023416;28;20180;-82
2022/02/24 09:15:48;;;;;;;0.43;0.43;;;8.80;99.90;;;;;;5027289;28;21096;-83
2022/02/24 09:18:14;;;;;;;0.40;0.40;;;8.70;99.90;;;;;;5025414;28;20201;-82
2022/02/24 09:20:40;;;;;;;0.37;0.37;;;8.70;99.90;;;;;;5018430;28;20180;-81
2022/02/24 09:23:07;;;;;;;0.20;0.20;;;9.00;99.90;;;;;;5019828;28;20292;-83
2022/02/24 09:25:32;;;;;;;1.43;0.40;;;9.00;99.90;;;;;;5019437;28;20711;-83
2022/02/24 09:27:58;;;;;;;0.57;0.57;;;8.70;99.90;;;;;;5019898;28;20297;-82
2022/02/24 09:30:25;;;;;;;0.73;0.60;;;8.80;99.90;;;;;;5019835;28;20217;-82
2022/02/24 09:32:51;;;;;;;1.30;0.30;;;8.90;99.90;;;;;;5025047;28;20210;-83
2022/02/24 09:35:17;;;;;;;0.30;0.17;;;9.00;99.90;;;;;;5014920;28;20190;-82
2022/02/24 09:37:43;;;;;;;0.93;0.40;;;8.90;99.90;;;;;;5018373;28;20201;-82
2022/02/24 09:40:10;;;;;;;0.47;0.47;;;8.90;99.90;;;;;;5017545;28;20662;-82
2022/02/24 09:42:36;;;;;;;0.20;0.20;;;9.20;99.90;;;;;;5020900;28;20197;-82
2022/02/24 09:45:03;;;;;;;0.20;0.20;;;9.60;99.90;;;;;;5019121;28;20263;-81
2022/02/24 09:47:30;;;;;;;0.40;0.40;;;9.70;99.90;;;;;;5017961;28;20251;-81
2022/02/24 09:49:58;;;;;;;0.63;0.43;;;9.90;99.90;;;;;;5017208;28;20221;-81
2022/02/24 09:52:24;;;;;;;0.63;0.57;;;10.20;99.90;;;;;;5019964;28;20213;-82
2022/02/24 09:54:50;;;;;;;0.50;0.50;;;10.30;99.90;;;;;;5023832;28;20190;-82
2022/02/24 09:57:16;;;;;;;0.30;0.30;;;10.50;99.90;;;;;;5016537;28;20248;-82
2022/02/24 09:59:41;;;;;;;1.20;0.40;;;10.50;99.90;;;;;;5024935;28;20189;-82
2022/02/24 10:02:09;;;;;;;0.20;0.20;;;10.60;99.90;;;;;;5021473;28;20194;-82
2022/02/24 10:04:35;;;;;;;0.30;0.30;;;10.90;99.90;;;;;;5025187;28;20204;-82
2022/02/24 10:07:00;;;;;;;2.30;0.83;;;11.10;99.90;;;;;;5022220;28;20277;-82
2022/02/24 10:09:32;;;;;;;0.60;0.40;;;11.30;99.90;;;;;;5016893;28;20187;-82
2022/02/24 10:12:09;;;;;;;0.50;0.50;;;11.00;99.90;;;;;;5021996;28;20206;-82
2022/02/24 10:14:37;;;;;;;0.70;0.70;;;10.40;99.90;;;;;;5024438;28;20194;-82
2022/02/24 10:17:05;;;;;;;0.33;0.30;;;10.50;99.90;;;;;;5023054;28;20552;-82
2022/02/24 10:19:40;;;;;;;0.50;0.50;;;11.10;99.90;;;;;;5021889;28;20648;-81
2022/02/24 10:22:11;;;;;;;0.30;0.30;;;11.50;99.90;;;;;;5019278;28;20193;-82
2022/02/24 10:24:38;;;;;;;0.60;0.60;;;11.80;99.90;;;;;;5017853;28;20634;-82
2022/02/24 10:27:22;;;;;;;0.53;0.53;;;12.10;99.90;;;;;;5022910;28;20620;-82
2022/02/24 10:30:25;;;;;;;0.30;0.30;;;11.80;99.90;;;;;;5023659;28;20206;-82
2022/02/24 10:32:52;;;;;;;0.23;0.23;;;11.60;99.90;;;;;;5022115;28;20209;-82
2022/02/24 10:35:21;;;;;;;1.50;0.50;;;11.70;99.90;;;;;;5022387;28;20187;-82
2022/02/24 10:38:00;;;;;;;0.43;0.43;;;11.80;99.90;;;;;;5020316;28;21162;-84
2022/02/24 10:40:28;;;;;;;0.40;0.40;;;12.00;99.90;;;;;;5037081;28;21480;-84
2022/02/24 10:42:54;;;;;;;2.20;1.87;;;12.20;99.90;;;;;;5017792;28;20194;-84
2022/02/24 10:45:25;;;;;;;0.47;0.40;;;12.40;99.90;;;;;;5020592;28;20194;-82
2022/02/24 10:47:58;;;;;;;4.23;1.23;;;12.60;99.90;;;;;;5022697;28;20272;-82
2022/02/24 10:50:56;;;;;;;1.37;0.37;;;12.80;99.90;;;;;;5022880;28;20186;-82
2022/02/24 10:53:27;;;;;;;0.27;0.27;;;12.90;99.90;;;;;;5027470;28;20735;-82
2022/02/24 10:55:57;;;;;;;0.73;0.60;;;12.80;99.90;;;;;;5024029;28;20188;-82
2022/02/24 10:58:24;;;;;;;0.30;0.30;;;12.90;99.90;;;;;;5024979;28;20206;-82
2022/02/24 11:01:07;;;;;;;0.40;0.40;;;13.00;99.90;;;;;;5026533;28;20189;-81
2022/02/24 11:03:34;;;;;;;0.20;0.20;;;12.60;99.90;;;;;;5026792;28;20186;-82
2022/02/24 11:06:03;;;;;;;0.17;0.17;;;12.60;99.90;;;;;;5023452;28;20202;-82
2022/02/24 11:08:30;;;;;;;0.90;0.90;;;12.80;99.90;;;;;;5025608;28;20209;-82
2022/02/24 11:10:57;;;;;;;0.40;0.40;;;13.00;99.90;;;;;;5022779;28;20186;-82
2022/02/24 11:13:23;;;;;;;1.10;0.20;;;13.00;99.90;;;;;;5025294;28;20250;-82
2022/02/24 11:15:50;;;;;;;0.40;0.27;;;13.00;99.90;;;;;;5023472;28;20215;-82
2022/02/24 11:18:20;;;;;;;0.10;0.10;;;13.00;99.90;;;;;;5020012;28;21314;-82
2022/02/24 11:20:47;;;;;;;0.60;0.43;;;12.90;99.90;;;;;;5026587;28;20197;-82
2022/02/24 11:23:14;;;;;;;0.20;0.20;;;12.80;99.90;;;;;;5025430;28;20665;-82
2022/02/24 11:26:00;;;;;;;1.43;1.13;;;12.70;99.90;;;;;;5025914;28;21188;-82
2022/02/24 11:28:33;;;;;;;0.37;0.37;;;12.80;99.90;;;;;;5034410;28;20218;-82
2022/02/24 11:31:06;;;;;;;1.30;0.40;;;12.80;99.90;;;;;;5029500;28;20217;-82
2022/02/24 11:33:32;;;;;;;0.30;0.30;;;12.70;99.90;;;;;;5030301;28;20186;-82
2022/02/24 11:36:24;;;;;;;0.40;0.40;;;12.70;99.90;;;;;;5025990;28;20183;-82
2022/02/24 11:39:14;;;;;;;0.23;0.20;;;12.80;99.90;;;;;;5027529;28;20214;-82
2022/02/24 11:41:49;;;;;;;0.50;0.33;;;12.90;99.90;;;;;;5021289;28;20217;-82
2022/02/24 11:44:40;;;;;;;0.30;0.30;;;12.90;99.90;;;;;;5027760;28;20280;-82
2022/02/24 11:47:07;;;;;;;0.20;0.20;;;13.10;99.90;;;;;;5030328;28;20206;-82
2022/02/24 11:49:55;;;;;;;0.30;0.30;;;13.10;99.90;;;;;;5027783;28;20272;-82
2022/02/24 11:52:34;;;;;;;0.30;0.30;;;13.30;99.90;;;;;;5024566;28;20213;-84
2022/02/24 11:55:00;;;;;;;0.30;0.30;;;13.50;99.90;;;;;;5025142;28;20192;-82
2022/02/24 11:57:34;;;;;;;0.13;0.13;;;13.60;99.90;;;;;;5027652;28;21094;-83
2022/02/24 12:00:17;;;;;;;0.80;0.80;;;13.70;99.90;;;;;;5031859;28;20195;-82
2022/02/24 12:02:49;;;;;;;0.40;0.40;;;14.00;99.90;;;;;;5022882;28;20189;-82
2022/02/24 12:05:26;;;;;;;0.17;0.17;;;14.10;99.90;;;;;;5028825;28;20209;-82
2022/02/24 12:08:04;;;;;;;0.60;0.47;;;14.10;99.90;;;;;;5026533;28;20212;-82
2022/02/24 12:10:41;;;;;;;0.97;0.23;;;14.20;99.90;;;;;;5034628;28;20217;-82
2022/02/24 12:13:27;;;;;;;1.57;1.10;;;14.20;99.90;;;;;;5032329;28;20222;-82
2022/02/24 12:16:15;;;;;;;0.30;0.30;;;14.00;99.90;;;;;;5031994;28;20243;-82
2022/02/24 12:18:41;;;;;;;0.43;0.30;;;13.80;99.90;;;;;;5031643;28;20261;-82
2022/02/24 12:21:28;;;;;;;0.60;0.60;;;13.60;99.90;;;;;;5029772;28;20244;-83
2022/02/24 12:23:56;;;;;;;0.57;0.57;;;13.60;99.90;;;;;;5030508;28;20185;-83
2022/02/24 12:26:41;;;;;;;0.87;0.50;;;13.60;99.90;;;;;;5030294;28;20182;-83
2022/02/24 12:29:20;;;;;;;1.37;0.50;;;13.60;99.90;;;;;;5032627;28;20282;-82
2022/02/24 12:31:46;;;;;;;0.30;0.30;;;13.50;99.90;;;;;;5030810;28;20597;-82
2022/02/24 12:34:12;;;;;;;0.10;0.10;;;13.40;99.90;;;;;;5031758;28;20182;-82
2022/02/24 12:36:38;;;;;;;0.30;0.30;;;13.40;99.90;;;;;;5026454;28;20194;-83
2022/02/24 12:39:07;;;;;;;0.40;0.40;;;13.20;99.90;;;;;;5028328;28;20230;-83
2022/02/24 12:41:32;;;;;;;0.37;0.37;;;13.00;99.90;;;;;;5027591;28;20265;-83
2022/02/24 12:43:58;;;;;;;0.47;0.47;;;13.00;99.90;;;;;;5029788;28;20654;-82
2022/02/24 12:46:24;;;;;;;0.30;0.30;;;12.90;99.90;;;;;;5030804;28;20194;-83
2022/02/24 12:48:50;;;;;;;0.30;0.30;;;12.70;99.90;;;;;;5022534;28;20313;-82
2022/02/24 12:51:23;;;;;;;0.20;0.20;;;12.60;99.90;;;;;;5028407;28;20199;-82
2022/02/24 12:53:48;;;;;;;0.73;0.53;;;12.40;99.90;;;;;;5031735;28;20523;-82
2022/02/24 12:56:17;;;;;;;0.10;0.10;;;12.30;99.90;;;;;;5026470;28;20174;-82